Aérodrome :
LOGIN :

S'inscrire | Disclaimer

   EN    FR    IT 

 










Légende :    VFR   VFR Marginal   IFR   IFR Intensif   IFR Très Intensif
Visi : 
Plafond : 
>= 8 km
>= 3000ft
5 à 8 km
1000 à 3000 ft
1500m à 5 km
500 à 1000 ft
800 à 1500m
200 à 500 ft
< 800m
< 200 ft
Symboles :   Orages  Brouillard  Fortes neiges  Fortes précipitations  Vent > 20 kt
SIGMETs :   Divers  Orages  Givrage  Turbulence  Onde Orograph.  Cendres Volcan.






- Altitude de l'aérodrome : 796 ft
- Code IATA : SYT


LFLN - Saint-Yan

DERNIER METAR :
  • 031030Z AUTO 21005KT 120V260 CAVOK 27/12 Q1006 TEMPO VRB15G30KT 1200 TSRA SCT040CB

METARs EXPIRÉS :
  • 031000Z AUTO VRB02KT CAVOK 27/13 Q1007 TEMPO VRB15G30KT 1200 TSRA SCT040CB
  • 030930Z AUTO VRB02KT CAVOK 26/12 Q1007 TEMPO VRB15G30KT 1200 TSRA SCT040CB
  • 030900Z AUTO 20003KT 120V250 CAVOK 25/12 Q1007 BECMG FEW050CB
  • 030830Z AUTO VRB03KT CAVOK 24/12 Q1008 BECMG FEW050CB
  • 030800Z AUTO 21003KT 150V320 CAVOK 22/12 Q1008 BECMG FEW050CB
  • 030730Z AUTO 18004KT 140V220 CAVOK 21/11 Q1008 BECMG FEW050CB

TAF TAF LFLN
Valide du 03 à 09h jusqu'au 03 à 18h UTC


030800Z 0309/0318 20004KT CAVOK
BECMG 0309/0311 FEW050CB
TEMPO 0311/0318 4000 SHRA
PROB40
TEMPO 0311/0318 VRB15G30KT 1200 TSRA SCT040CB



MET'MAP, la Météo Aéronautique d'un coup d'oeil ! - Copyright ORBIFLY Décembre 2007 - Disclaimer

ORBIFLY MET'MAP TEAM :

Programmation & Développement : Alexandra Zaïnal
Sur une idée originale de : Baudouin d'Aumeries
Assistance à la programmation : Marc-Olivier Méhu
Soutien technique & logistique : Manuel Goepfert

Contact : metmap@orbifly.com




SOURCES & CREDITS :

   NOAA